This is the latest recevied weather packets stored in our database for station/object K4ROM-1. If no packets are shown the sender has not sent any weather packets the latest 10 day(s).
| Time | Temp. | Humidity | Pressure | Rain* | Wind** | Luminosity | Snow |
|---|---|---|---|---|---|---|---|
| 1777813203 | 10.56° C | 63% | 1021.2 hPa | 0 mm | 1.34 m/s, 32° | - | - |
| 1777812602 | 10° C | 68% | 1021.1 hPa | 0 mm | 0.89 m/s, 354° | - | - |
| 1777812003 | 9.44° C | 71% | 1021 hPa | 0 mm | 0.89 m/s, 7° | - | - |
| 1777811403 | 8.89° C | 73% | 1021.2 hPa | 0 mm | 0.45 m/s, 308° | - | - |
| 1777810803 | 7.78° C | 76% | 1020.9 hPa | 0 mm | 0 m/s | - | - |
| 1777810203 | 7.22° C | 78% | 1020.8 hPa | 0 mm | 0.45 m/s, 276° | - | - |
| 1777809603 | 7.22° C | 79% | 1020.9 hPa | 0 mm | 0.45 m/s, 324° | - | - |
| 1777809003 | 6.11° C | 78% | 1020.8 hPa | 0 mm | 0 m/s | - | - |
| 1777808403 | 5.56° C | 82% | 1020.6 hPa | 0 mm | 0 m/s | - | - |
| 1777807803 | 4.44° C | 87% | 1020.6 hPa | 0 mm | 0 m/s | - | - |
| 1777807203 | 3.89° C | 88% | 1020.2 hPa | 0 mm | 0 m/s | - | - |
| 1777806603 | 3.89° C | 91% | 1020.2 hPa | 0 mm | 0 m/s | - | - |
| 1777806003 | 3.33° C | 90% | 1020 hPa | 0 mm | 0 m/s | - | - |
| 1777805403 | 3.33° C | 91% | 1019.8 hPa | 0 mm | 0 m/s | - | - |
| 1777804804 | 3.33° C | 91% | 1019.6 hPa | 0 mm | 0 m/s | - | - |
| 1777804203 | 3.33° C | 90% | 1019.3 hPa | 0 mm | 0 m/s | - | - |
| 1777803603 | 3.33° C | 91% | 1019.2 hPa | 0 mm | 0 m/s | - | - |
| 1777803003 | 3.33° C | 90% | 1019.2 hPa | 0 mm | 0 m/s | - | - |
| 1777802403 | 3.89° C | 89% | 1019 hPa | 0 mm | 0 m/s | - | - |
| 1777801802 | 3.89° C | 88% | 1018.9 hPa | 0 mm | 0.45 m/s, 243° | - | - |
| 1777801203 | 4.44° C | 86% | 1018.8 hPa | 0 mm | 0 m/s | - | - |
| 1777800603 | 5° C | 84% | 1018.6 hPa | 0 mm | 0 m/s | - | - |
| 1777800003 | 5.56° C | 81% | 1018.5 hPa | 0 mm | 0 m/s | - | - |
| 1777799403 | 6.11° C | 77% | 1018.5 hPa | 0 mm | 0 m/s | - | - |
| 1777798803 | 6.11° C | 74% | 1018.4 hPa | 0 mm | 0 m/s | - | - |
* Rain latest hour (hover to see other rain measurements)
** Current wind speed in m/s (hover to see current wind gust speed)